sensor_id;sensor_type;location;lat;lon;timestamp;temperature;humidity
20315;DHT22;10315;50.958;13.080;2024-01-07T00:06:41;-0.40;99.90
20315;DHT22;10315;50.958;13.080;2024-01-07T00:16:44;-0.40;99.90
20315;DHT22;10315;50.958;13.080;2024-01-07T00:26:45;-0.40;99.90
20315;DHT22;10315;50.958;13.080;2024-01-07T00:36:48;-0.50;99.90
20315;DHT22;10315;50.958;13.080;2024-01-07T00:46:50;-0.60;99.90
20315;DHT22;10315;50.958;13.080;2024-01-07T00:56:53;-0.70;99.90
20315;DHT22;10315;50.958;13.080;2024-01-07T01:06:54;-0.80;99.90
20315;DHT22;10315;50.958;13.080;2024-01-07T01:16:57;-0.90;99.90
20315;DHT22;10315;50.958;13.080;2024-01-07T01:26:59;-0.80;99.90
20315;DHT22;10315;50.958;13.080;2024-01-07T01:37:02;-1.00;99.90
20315;DHT22;10315;50.958;13.080;2024-01-07T01:47:05;-1.10;99.90
20315;DHT22;10315;50.958;13.080;2024-01-07T01:57:15;-1.00;99.90
20315;DHT22;10315;50.958;13.080;2024-01-07T02:07:18;-1.10;99.90
20315;DHT22;10315;50.958;13.080;2024-01-07T02:17:21;-1.20;99.90
20315;DHT22;10315;50.958;13.080;2024-01-07T02:27:24;-1.20;99.90
20315;DHT22;10315;50.958;13.080;2024-01-07T02:37:25;-1.20;99.90
20315;DHT22;10315;50.958;13.080;2024-01-07T02:47:28;-1.20;99.90
20315;DHT22;10315;50.958;13.080;2024-01-07T02:57:30;-1.20;99.90
20315;DHT22;10315;50.958;13.080;2024-01-07T03:07:33;-1.40;99.90
20315;DHT22;10315;50.958;13.080;2024-01-07T03:17:34;-1.40;99.90
20315;DHT22;10315;50.958;13.080;2024-01-07T03:27:37;-1.50;99.90
20315;DHT22;10315;50.958;13.080;2024-01-07T03:37:53;-1.50;99.90
20315;DHT22;10315;50.958;13.080;2024-01-07T03:47:56;-1.60;99.90
20315;DHT22;10315;50.958;13.080;2024-01-07T03:57:57;-1.60;99.90
20315;DHT22;10315;50.958;13.080;2024-01-07T04:08:01;-1.80;99.90
20315;DHT22;10315;50.958;13.080;2024-01-07T04:18:02;-1.80;99.90
20315;DHT22;10315;50.958;13.080;2024-01-07T04:28:05;-1.80;99.90
20315;DHT22;10315;50.958;13.080;2024-01-07T04:38:07;-1.90;99.90
20315;DHT22;10315;50.958;13.080;2024-01-07T04:48:10;-1.90;99.90
20315;DHT22;10315;50.958;13.080;2024-01-07T04:58:12;-1.90;99.90
20315;DHT22;10315;50.958;13.080;2024-01-07T05:08:15;-2.00;99.90
20315;DHT22;10315;50.958;13.080;2024-01-07T05:18:16;-2.10;99.90
20315;DHT22;10315;50.958;13.080;2024-01-07T05:28:19;-2.10;99.90
20315;DHT22;10315;50.958;13.080;2024-01-07T05:38:21;-2.10;99.90
20315;DHT22;10315;50.958;13.080;2024-01-07T05:48:24;-2.10;99.90
20315;DHT22;10315;50.958;13.080;2024-01-07T05:58:25;-2.20;99.90
20315;DHT22;10315;50.958;13.080;2024-01-07T06:08:28;-2.30;99.90
20315;DHT22;10315;50.958;13.080;2024-01-07T06:18:30;-2.30;99.90
20315;DHT22;10315;50.958;13.080;2024-01-07T06:28:33;-2.30;99.90
20315;DHT22;10315;50.958;13.080;2024-01-07T06:38:34;-2.40;99.90
20315;DHT22;10315;50.958;13.080;2024-01-07T06:48:37;-2.30;99.90
20315;DHT22;10315;50.958;13.080;2024-01-07T06:58:39;-2.30;99.90
20315;DHT22;10315;50.958;13.080;2024-01-07T07:08:42;-2.40;99.90
20315;DHT22;10315;50.958;13.080;2024-01-07T07:18:43;-2.40;99.90
20315;DHT22;10315;50.958;13.080;2024-01-07T07:28:47;-2.50;99.90
20315;DHT22;10315;50.958;13.080;2024-01-07T07:38:48;-2.50;99.90
20315;DHT22;10315;50.958;13.080;2024-01-07T07:48:51;-2.50;99.90
20315;DHT22;10315;50.958;13.080;2024-01-07T07:58:53;-2.50;99.90
20315;DHT22;10315;50.958;13.080;2024-01-07T08:08:56;-2.60;99.90
20315;DHT22;10315;50.958;13.080;2024-01-07T08:18:57;-2.60;99.90
20315;DHT22;10315;50.958;13.080;2024-01-07T08:29:00;-2.70;99.90
20315;DHT22;10315;50.958;13.080;2024-01-07T08:39:02;-2.70;99.90
20315;DHT22;10315;50.958;13.080;2024-01-07T08:49:05;-2.60;99.90
20315;DHT22;10315;50.958;13.080;2024-01-07T08:59:07;-2.70;99.90
20315;DHT22;10315;50.958;13.080;2024-01-07T09:09:10;-2.80;99.90
20315;DHT22;10315;50.958;13.080;2024-01-07T09:19:12;-2.70;99.90
20315;DHT22;10315;50.958;13.080;2024-01-07T09:29:15;-2.50;99.90
20315;DHT22;10315;50.958;13.080;2024-01-07T09:39:16;-2.50;99.90
20315;DHT22;10315;50.958;13.080;2024-01-07T09:49:19;-2.30;99.90
20315;DHT22;10315;50.958;13.080;2024-01-07T09:59:21;-2.40;99.90
20315;DHT22;10315;50.958;13.080;2024-01-07T10:09:24;-2.50;99.90
20315;DHT22;10315;50.958;13.080;2024-01-07T10:19:26;-2.50;99.90
20315;DHT22;10315;50.958;13.080;2024-01-07T10:29:29;-2.50;99.90
20315;DHT22;10315;50.958;13.080;2024-01-07T10:39:31;-2.60;99.90
20315;DHT22;10315;50.958;13.080;2024-01-07T10:49:35;-2.60;99.90
20315;DHT22;10315;50.958;13.080;2024-01-07T10:59:38;-2.40;99.90
20315;DHT22;10315;50.958;13.080;2024-01-07T11:09:46;-2.70;99.90
20315;DHT22;10315;50.958;13.080;2024-01-07T11:19:50;-2.70;99.90
20315;DHT22;10315;50.958;13.080;2024-01-07T11:29:57;-2.70;99.90
20315;DHT22;10315;50.958;13.080;2024-01-07T11:39:59;-2.70;99.90
20315;DHT22;10315;50.958;13.080;2024-01-07T11:50:02;-3.00;99.90
20315;DHT22;10315;50.958;13.080;2024-01-07T12:00:05;-3.00;99.90
20315;DHT22;10315;50.958;13.080;2024-01-07T12:10:09;-2.90;99.90
20315;DHT22;10315;50.958;13.080;2024-01-07T12:20:12;-3.00;99.90
20315;DHT22;10315;50.958;13.080;2024-01-07T12:30:17;-3.00;99.90
20315;DHT22;10315;50.958;13.080;2024-01-07T12:40:19;-3.10;99.90
20315;DHT22;10315;50.958;13.080;2024-01-07T12:50:22;-3.10;99.90
20315;DHT22;10315;50.958;13.080;2024-01-07T13:00:28;-2.90;99.90
20315;DHT22;10315;50.958;13.080;2024-01-07T13:10:31;-2.90;99.90
20315;DHT22;10315;50.958;13.080;2024-01-07T13:20:32;-2.90;99.90
20315;DHT22;10315;50.958;13.080;2024-01-07T13:30:37;-3.00;99.90
20315;DHT22;10315;50.958;13.080;2024-01-07T13:40:39;-2.90;99.90
20315;DHT22;10315;50.958;13.080;2024-01-07T13:50:42;-3.10;99.90
20315;DHT22;10315;50.958;13.080;2024-01-07T14:00:46;-3.10;99.90
20315;DHT22;10315;50.958;13.080;2024-01-07T14:10:48;-3.00;99.90
20315;DHT22;10315;50.958;13.080;2024-01-07T14:20:50;-3.00;99.90
20315;DHT22;10315;50.958;13.080;2024-01-07T14:30:53;-3.10;99.90
20315;DHT22;10315;50.958;13.080;2024-01-07T14:40:55;-3.20;99.90
20315;DHT22;10315;50.958;13.080;2024-01-07T14:50:58;-3.40;99.90
20315;DHT22;10315;50.958;13.080;2024-01-07T15:01:00;-3.40;99.90
20315;DHT22;10315;50.958;13.080;2024-01-07T15:11:04;-3.30;99.90
20315;DHT22;10315;50.958;13.080;2024-01-07T15:21:05;-3.30;99.90
20315;DHT22;10315;50.958;13.080;2024-01-07T15:31:10;-3.40;99.90
20315;DHT22;10315;50.958;13.080;2024-01-07T15:41:12;-3.40;99.90
20315;DHT22;10315;50.958;13.080;2024-01-07T15:51:15;-3.50;99.90
20315;DHT22;10315;50.958;13.080;2024-01-07T16:01:16;-3.50;99.90
20315;DHT22;10315;50.958;13.080;2024-01-07T16:11:19;-3.40;99.90
20315;DHT22;10315;50.958;13.080;2024-01-07T16:21:21;-3.40;99.90
20315;DHT22;10315;50.958;13.080;2024-01-07T16:31:24;-3.40;99.90
20315;DHT22;10315;50.958;13.080;2024-01-07T16:41:25;-3.30;99.90
20315;DHT22;10315;50.958;13.080;2024-01-07T16:51:28;-3.30;99.90
20315;DHT22;10315;50.958;13.080;2024-01-07T17:01:30;-3.30;99.90
20315;DHT22;10315;50.958;13.080;2024-01-07T17:11:33;-3.40;99.90
20315;DHT22;10315;50.958;13.080;2024-01-07T17:21:34;-3.40;99.90
20315;DHT22;10315;50.958;13.080;2024-01-07T17:31:37;-3.40;99.90
20315;DHT22;10315;50.958;13.080;2024-01-07T17:41:39;-3.40;99.90
20315;DHT22;10315;50.958;13.080;2024-01-07T17:51:43;-3.40;99.90
20315;DHT22;10315;50.958;13.080;2024-01-07T18:01:45;-3.40;99.90
20315;DHT22;10315;50.958;13.080;2024-01-07T18:11:48;-3.40;99.90
20315;DHT22;10315;50.958;13.080;2024-01-07T18:21:49;-3.30;99.90
20315;DHT22;10315;50.958;13.080;2024-01-07T18:31:52;-3.20;99.90
20315;DHT22;10315;50.958;13.080;2024-01-07T18:41:54;-3.30;99.90
20315;DHT22;10315;50.958;13.080;2024-01-07T18:51:57;-3.30;99.90
20315;DHT22;10315;50.958;13.080;2024-01-07T19:01:59;-3.20;99.90
20315;DHT22;10315;50.958;13.080;2024-01-07T19:12:04;-3.20;99.90
20315;DHT22;10315;50.958;13.080;2024-01-07T19:22:06;-3.20;99.90
20315;DHT22;10315;50.958;13.080;2024-01-07T19:32:09;-3.10;99.90
20315;DHT22;10315;50.958;13.080;2024-01-07T19:42:11;-3.20;99.90
20315;DHT22;10315;50.958;13.080;2024-01-07T19:52:15;-3.10;99.90
20315;DHT22;10315;50.958;13.080;2024-01-07T20:02:16;-3.20;99.90
20315;DHT22;10315;50.958;13.080;2024-01-07T20:12:19;-3.20;99.90
20315;DHT22;10315;50.958;13.080;2024-01-07T20:22:21;-3.30;99.90
20315;DHT22;10315;50.958;13.080;2024-01-07T20:32:24;-3.40;99.90
20315;DHT22;10315;50.958;13.080;2024-01-07T20:42:25;-3.40;99.90
20315;DHT22;10315;50.958;13.080;2024-01-07T20:52:28;-3.50;99.90
20315;DHT22;10315;50.958;13.080;2024-01-07T21:02:30;-3.70;99.90
20315;DHT22;10315;50.958;13.080;2024-01-07T21:12:33;-3.80;99.90
20315;DHT22;10315;50.958;13.080;2024-01-07T21:22:34;-3.90;99.90
20315;DHT22;10315;50.958;13.080;2024-01-07T21:32:37;-3.80;99.90
20315;DHT22;10315;50.958;13.080;2024-01-07T21:42:39;-3.90;99.90
20315;DHT22;10315;50.958;13.080;2024-01-07T21:52:53;-4.00;99.90
20315;DHT22;10315;50.958;13.080;2024-01-07T22:02:55;-4.10;99.90
20315;DHT22;10315;50.958;13.080;2024-01-07T22:12:58;-4.10;99.90
20315;DHT22;10315;50.958;13.080;2024-01-07T22:22:59;-4.20;99.90
20315;DHT22;10315;50.958;13.080;2024-01-07T22:33:02;-4.20;99.90
20315;DHT22;10315;50.958;13.080;2024-01-07T22:43:04;-4.20;99.90
20315;DHT22;10315;50.958;13.080;2024-01-07T22:53:07;-4.20;99.90
20315;DHT22;10315;50.958;13.080;2024-01-07T23:03:08;-4.20;99.90
20315;DHT22;10315;50.958;13.080;2024-01-07T23:13:12;-4.20;99.90
20315;DHT22;10315;50.958;13.080;2024-01-07T23:23:14;-4.20;99.90
20315;DHT22;10315;50.958;13.080;2024-01-07T23:33:17;-4.10;99.90
20315;DHT22;10315;50.958;13.080;2024-01-07T23:43:18;-4.10;99.90
20315;DHT22;10315;50.958;13.080;2024-01-07T23:53:21;-4.20;99.90
